createdAt,value
2022-11-30T00:00:39.046Z,18.53
2022-11-30T00:01:41.317Z,18.17
2022-11-30T00:02:43.812Z,18.30
2022-11-30T00:03:46.999Z,19.10
2022-11-30T00:04:49.532Z,18.13
2022-11-30T00:05:52.170Z,18.73
2022-11-30T00:06:57.378Z,19.03
2022-11-30T00:08:01.330Z,18.23
2022-11-30T00:09:03.684Z,18.50
2022-11-30T00:10:07.383Z,18.57
2022-11-30T00:11:12.695Z,18.73
2022-11-30T00:12:14.942Z,19.07
2022-11-30T00:13:17.126Z,19.77
2022-11-30T00:14:19.330Z,19.27
2022-11-30T00:15:21.543Z,18.57
2022-11-30T00:16:30.160Z,18.93
2022-11-30T00:17:32.435Z,19.27
2022-11-30T00:18:34.778Z,19.43
2022-11-30T00:19:40.041Z,19.07
2022-11-30T00:20:42.231Z,18.33
2022-11-30T00:21:44.410Z,18.30
2022-11-30T00:22:46.622Z,18.10
2022-11-30T00:23:51.100Z,19.53
2022-11-30T00:24:53.342Z,18.83
2022-11-30T00:25:55.510Z,18.27
2022-11-30T00:26:57.755Z,19.23
2022-11-30T00:28:00.609Z,18.40
2022-11-30T00:29:10.438Z,18.80
2022-11-30T00:30:13.341Z,18.07
2022-11-30T00:31:17.339Z,18.53
2022-11-30T00:32:19.611Z,19.13
2022-11-30T00:33:21.838Z,19.03
2022-11-30T00:34:24.075Z,18.23
2022-11-30T00:35:26.323Z,18.93
2022-11-30T00:36:28.583Z,19.13
2022-11-30T00:37:30.844Z,19.43
2022-11-30T00:38:33.884Z,18.63
2022-11-30T00:39:36.132Z,19.33
2022-11-30T00:40:38.342Z,18.30
2022-11-30T00:41:40.669Z,18.50
2022-11-30T00:42:42.934Z,18.77
2022-11-30T00:43:45.639Z,18.63
2022-11-30T00:44:48.128Z,19.13
2022-11-30T00:45:50.837Z,19.57
2022-11-30T00:46:53.173Z,19.30
2022-11-30T00:47:55.380Z,18.67
2022-11-30T00:48:57.660Z,18.40
2022-11-30T00:49:59.913Z,18.97
2022-11-30T00:51:02.195Z,19.00
2022-11-30T00:52:04.661Z,18.90
2022-11-30T00:53:07.130Z,18.90
2022-11-30T00:54:10.011Z,19.23
2022-11-30T00:55:12.209Z,19.57
2022-11-30T00:56:14.863Z,18.73
2022-11-30T00:57:17.186Z,18.27
2022-11-30T00:58:19.857Z,20.37
2022-11-30T00:59:22.046Z,18.60
2022-11-30T01:00:24.335Z,19.30
2022-11-30T01:01:26.697Z,19.13
2022-11-30T01:02:28.961Z,19.23
2022-11-30T01:03:31.227Z,19.37
2022-11-30T01:04:33.509Z,19.93
2022-11-30T01:05:36.649Z,19.17
2022-11-30T01:06:39.287Z,19.63
2022-11-30T01:07:41.489Z,20.20
2022-11-30T01:08:43.799Z,20.00
2022-11-30T01:09:46.002Z,19.50
2022-11-30T01:10:53.354Z,18.93
2022-11-30T01:11:55.660Z,19.33
2022-11-30T01:12:57.863Z,18.60
2022-11-30T01:14:01.013Z,18.90
2022-11-30T01:15:03.646Z,19.03
2022-11-30T01:16:11.358Z,19.53
2022-11-30T01:17:13.664Z,19.97
2022-11-30T01:18:16.060Z,19.03
2022-11-30T01:19:18.344Z,19.60
2022-11-30T01:20:20.650Z,19.07
2022-11-30T01:21:25.901Z,19.00
2022-11-30T01:22:29.056Z,18.63
2022-11-30T01:23:31.278Z,19.80
2022-11-30T01:24:33.850Z,18.73
2022-11-30T01:25:36.313Z,19.50
2022-11-30T01:26:38.555Z,18.23
2022-11-30T01:27:40.789Z,19.20
2022-11-30T01:28:46.109Z,19.43
2022-11-30T01:29:48.322Z,18.90
2022-11-30T01:31:16.148Z,19.23
2022-11-30T01:32:18.486Z,18.90
2022-11-30T01:33:20.734Z,18.37
2022-11-30T01:34:22.960Z,19.17
2022-11-30T01:35:25.145Z,18.90
2022-11-30T01:36:27.364Z,18.37
2022-11-30T01:37:32.711Z,19.17
2022-11-30T01:38:40.759Z,19.03
2022-11-30T01:39:45.739Z,18.93
2022-11-30T01:40:54.161Z,19.20
2022-11-30T01:41:56.439Z,17.97
2022-11-30T01:42:58.634Z,18.50
2022-11-30T01:44:06.893Z,18.40
2022-11-30T01:45:12.881Z,17.60
2022-11-30T01:46:38.755Z,18.13
2022-11-30T01:47:46.572Z,17.47
2022-11-30T01:48:56.084Z,17.67
2022-11-30T01:50:04.370Z,17.70
2022-11-30T01:51:09.202Z,18.20
2022-11-30T01:52:15.709Z,18.57
2022-11-30T01:53:18.013Z,18.23
2022-11-30T01:54:25.054Z,18.50
2022-11-30T01:55:35.928Z,17.83
2022-11-30T01:56:43.220Z,18.17
2022-11-30T01:57:51.564Z,18.23
2022-11-30T01:58:53.776Z,17.33
2022-11-30T01:59:59.049Z,16.47
2022-11-30T02:01:01.478Z,18.03
2022-11-30T02:02:03.760Z,17.10
2022-11-30T02:03:11.428Z,16.70
2022-11-30T02:04:13.565Z,17.07
2022-11-30T02:05:17.400Z,17.40
2022-11-30T02:06:19.796Z,17.27
2022-11-30T02:07:22.290Z,17.63
2022-11-30T02:08:25.202Z,17.83
2022-11-30T02:09:29.091Z,17.17
2022-11-30T02:10:34.687Z,16.43
2022-11-30T02:11:37.052Z,17.17
2022-11-30T02:12:58.954Z,16.90
2022-11-30T02:14:24.164Z,16.30
2022-11-30T02:15:31.546Z,16.90
2022-11-30T02:16:55.918Z,17.30
2022-11-30T02:18:19.546Z,16.87
2022-11-30T02:19:39.901Z,16.47
2022-11-30T02:21:05.463Z,16.53
2022-11-30T02:22:28.357Z,16.13
2022-11-30T02:23:43.339Z,16.47
2022-11-30T02:24:59.576Z,16.60
2022-11-30T02:26:30.347Z,16.23
2022-11-30T02:27:47.578Z,17.37
2022-11-30T02:29:47.552Z,16.97
2022-11-30T02:30:54.065Z,15.87
2022-11-30T02:32:10.087Z,17.47
2022-11-30T02:33:16.632Z,16.37
2022-11-30T02:34:22.413Z,16.60
2022-11-30T02:35:29.236Z,16.20
2022-11-30T02:36:32.444Z,15.87
2022-11-30T02:37:37.216Z,16.47
2022-11-30T02:38:40.315Z,16.50
2022-11-30T02:39:46.480Z,15.77
2022-11-30T02:40:48.901Z,16.70
2022-11-30T02:41:54.121Z,16.13
2022-11-30T02:43:00.246Z,16.23
2022-11-30T02:44:03.798Z,16.40
2022-11-30T02:45:08.092Z,16.13
2022-11-30T02:46:23.541Z,15.97
2022-11-30T02:47:32.734Z,16.50
2022-11-30T02:48:45.784Z,16.60
2022-11-30T02:49:53.630Z,16.70
2022-11-30T02:51:00.899Z,16.80
2022-11-30T02:52:05.495Z,16.93
2022-11-30T02:53:09.689Z,16.57
2022-11-30T02:54:12.433Z,16.83
2022-11-30T02:55:17.633Z,16.07
2022-11-30T02:56:20.848Z,17.60
2022-11-30T02:57:25.560Z,16.83
2022-11-30T02:58:31.009Z,16.53
2022-11-30T02:59:33.589Z,16.47
2022-11-30T03:00:35.971Z,16.33
2022-11-30T03:01:39.828Z,17.30
2022-11-30T03:02:42.635Z,16.00
2022-11-30T03:03:45.189Z,15.97
2022-11-30T03:04:47.618Z,16.77
2022-11-30T03:05:49.956Z,16.27
2022-11-30T03:06:52.274Z,16.33
2022-11-30T03:07:54.579Z,16.67
2022-11-30T03:08:56.841Z,16.70
2022-11-30T03:10:00.096Z,16.70
2022-11-30T03:11:04.910Z,16.73
2022-11-30T03:12:07.281Z,16.57
2022-11-30T03:13:09.526Z,15.53
2022-11-30T03:14:11.801Z,15.50
2022-11-30T03:15:14.130Z,16.93
2022-11-30T03:16:16.458Z,16.13
2022-11-30T03:17:21.687Z,16.47
2022-11-30T03:18:23.916Z,16.13
2022-11-30T03:19:28.975Z,15.83
2022-11-30T03:20:31.363Z,16.03
2022-11-30T03:21:33.725Z,17.10
2022-11-30T03:22:36.025Z,16.23
2022-11-30T03:23:39.166Z,16.47
2022-11-30T03:24:41.338Z,16.53
2022-11-30T03:25:43.542Z,16.37
2022-11-30T03:26:45.782Z,16.33
2022-11-30T03:27:47.953Z,16.60
2022-11-30T03:28:50.209Z,15.53
2022-11-30T03:29:52.468Z,15.73
2022-11-30T03:30:57.218Z,15.77
2022-11-30T03:31:59.504Z,15.73
2022-11-30T03:33:01.738Z,16.37
2022-11-30T03:34:04.077Z,15.57
2022-11-30T03:35:06.637Z,15.97
2022-11-30T03:36:11.349Z,16.00
2022-11-30T03:37:13.725Z,16.00
2022-11-30T03:38:15.935Z,16.23
2022-11-30T03:39:18.232Z,15.60
2022-11-30T03:40:20.447Z,15.77
2022-11-30T03:41:22.651Z,15.63
2022-11-30T03:42:24.892Z,15.67
2022-11-30T03:43:27.146Z,16.30
2022-11-30T03:44:30.076Z,15.00
2022-11-30T03:45:32.278Z,15.73
2022-11-30T03:46:34.548Z,15.57
2022-11-30T03:47:37.335Z,15.90
2022-11-30T03:48:43.399Z,15.97
2022-11-30T03:49:47.951Z,16.17
2022-11-30T03:50:50.625Z,15.60
2022-11-30T03:51:52.866Z,15.90
2022-11-30T03:52:57.395Z,15.57
2022-11-30T03:53:59.663Z,15.53
2022-11-30T03:55:05.064Z,15.97
2022-11-30T03:56:14.371Z,15.20
2022-11-30T03:57:16.574Z,15.83
2022-11-30T03:58:18.965Z,16.00
2022-11-30T03:59:21.166Z,15.57
2022-11-30T04:00:23.441Z,15.90
2022-11-30T04:01:31.389Z,16.03
2022-11-30T04:02:41.551Z,16.43
2022-11-30T04:03:48.350Z,15.83
2022-11-30T04:04:53.569Z,15.53
2022-11-30T04:05:56.749Z,16.40
2022-11-30T04:06:59.157Z,15.47
2022-11-30T04:08:01.344Z,16.13
2022-11-30T04:09:03.777Z,16.43
2022-11-30T04:10:12.736Z,16.60
2022-11-30T04:11:16.243Z,15.57
2022-11-30T04:12:21.257Z,15.83
2022-11-30T04:13:24.497Z,15.73
2022-11-30T04:14:26.781Z,15.33
2022-11-30T04:15:28.967Z,16.33
2022-11-30T04:16:31.278Z,15.80
2022-11-30T04:17:33.592Z,15.87
2022-11-30T04:18:37.248Z,15.90
2022-11-30T04:19:39.431Z,15.70
2022-11-30T04:20:42.111Z,15.17
2022-11-30T04:21:44.402Z,15.40
2022-11-30T04:22:46.678Z,16.30
2022-11-30T04:23:49.010Z,15.80
2022-11-30T04:24:51.240Z,16.10
2022-11-30T04:25:53.425Z,15.73
2022-11-30T04:26:55.599Z,16.40
2022-11-30T04:27:58.137Z,16.30
2022-11-30T04:29:04.165Z,15.63
2022-11-30T04:30:10.442Z,16.27
2022-11-30T04:31:14.541Z,16.27
2022-11-30T04:32:16.851Z,15.47
2022-11-30T04:33:19.180Z,16.47
2022-11-30T04:34:21.358Z,16.00
2022-11-30T04:35:23.582Z,15.63
2022-11-30T04:36:25.764Z,15.80
2022-11-30T04:37:28.023Z,16.10
2022-11-30T04:38:31.136Z,15.73
2022-11-30T04:39:36.836Z,15.40
2022-11-30T04:40:40.909Z,16.20
2022-11-30T04:41:43.193Z,15.70
2022-11-30T04:42:48.540Z,15.80
2022-11-30T04:43:50.769Z,16.30
2022-11-30T04:44:52.987Z,16.37
2022-11-30T04:45:55.242Z,16.37
2022-11-30T04:46:57.484Z,16.17
2022-11-30T04:48:00.550Z,16.10
2022-11-30T04:49:03.180Z,16.87
2022-11-30T04:50:06.344Z,16.90
2022-11-30T04:51:09.562Z,16.57
2022-11-30T04:52:11.821Z,16.47
2022-11-30T04:53:14.122Z,15.97
2022-11-30T04:54:16.350Z,16.97
2022-11-30T04:55:19.645Z,17.13
2022-11-30T04:56:22.493Z,16.03
2022-11-30T04:57:24.908Z,17.00
2022-11-30T04:58:27.484Z,16.67
2022-11-30T04:59:33.016Z,17.20
2022-11-30T05:00:36.555Z,16.30
2022-11-30T05:01:38.823Z,16.87
2022-11-30T05:02:41.506Z,17.40
2022-11-30T05:03:44.526Z,17.20
2022-11-30T05:04:47.264Z,16.87
2022-11-30T05:05:49.732Z,17.27
2022-11-30T05:06:51.994Z,15.83
2022-11-30T05:07:58.877Z,16.30
2022-11-30T05:09:01.159Z,16.63
2022-11-30T05:10:05.171Z,16.47
2022-11-30T05:11:07.414Z,16.57
2022-11-30T05:12:09.767Z,17.10
2022-11-30T05:13:12.156Z,16.67
2022-11-30T05:14:14.616Z,17.13
2022-11-30T05:15:17.162Z,17.77
2022-11-30T05:16:19.401Z,16.33
2022-11-30T05:17:21.645Z,17.13
2022-11-30T05:18:24.040Z,16.20
2022-11-30T05:19:26.380Z,17.70
2022-11-30T05:20:29.255Z,17.23
2022-11-30T05:21:31.764Z,16.20
2022-11-30T05:22:36.873Z,16.10
2022-11-30T05:23:39.154Z,16.23
2022-11-30T05:24:41.373Z,17.00
2022-11-30T05:25:44.543Z,17.60
2022-11-30T05:26:46.819Z,17.00
2022-11-30T05:27:49.058Z,16.93
2022-11-30T05:28:51.284Z,16.93
2022-11-30T05:29:53.589Z,16.97
2022-11-30T05:30:58.177Z,16.23
2022-11-30T05:32:00.857Z,16.30
2022-11-30T05:33:03.145Z,17.23
2022-11-30T05:34:05.705Z,17.27
2022-11-30T05:35:08.752Z,16.97
2022-11-30T05:36:11.205Z,16.83
2022-11-30T05:37:16.540Z,17.60
2022-11-30T05:38:19.643Z,15.67
2022-11-30T05:39:21.845Z,17.20
2022-11-30T05:40:25.786Z,16.80
2022-11-30T05:41:28.008Z,18.03
2022-11-30T05:42:30.312Z,17.03
2022-11-30T05:43:32.537Z,16.30
2022-11-30T05:44:34.729Z,16.50
2022-11-30T05:45:37.035Z,17.00
2022-11-30T05:46:42.295Z,16.40
2022-11-30T05:47:44.534Z,17.33
2022-11-30T05:48:49.864Z,17.07
2022-11-30T05:49:52.090Z,17.17
2022-11-30T05:50:54.686Z,16.27
2022-11-30T05:51:56.878Z,16.53
2022-11-30T05:53:00.991Z,17.57
2022-11-30T05:54:03.301Z,17.03
2022-11-30T05:55:05.993Z,16.53
2022-11-30T05:56:16.157Z,17.80
2022-11-30T05:57:18.366Z,16.43
2022-11-30T05:58:20.583Z,18.03
2022-11-30T05:59:23.439Z,17.00
2022-11-30T06:00:25.688Z,17.27
2022-11-30T06:01:29.521Z,16.70
2022-11-30T06:02:31.884Z,16.53
2022-11-30T06:03:35.775Z,16.87
2022-11-30T06:04:38.008Z,16.80
2022-11-30T06:05:40.261Z,16.97
2022-11-30T06:06:42.562Z,18.03
2022-11-30T06:07:44.850Z,16.93
2022-11-30T06:08:48.888Z,17.00
2022-11-30T06:09:51.072Z,17.60
2022-11-30T06:10:54.100Z,18.07
2022-11-30T06:11:56.325Z,16.80
2022-11-30T06:12:58.600Z,17.17
2022-11-30T06:14:00.826Z,17.80
2022-11-30T06:15:03.596Z,17.53
2022-11-30T06:16:19.535Z,17.70
2022-11-30T06:17:21.810Z,17.23
2022-11-30T06:18:24.000Z,17.80
2022-11-30T06:19:26.183Z,17.90
2022-11-30T06:20:28.395Z,18.63
2022-11-30T06:21:30.583Z,17.83
2022-11-30T06:22:34.194Z,17.63
2022-11-30T06:23:39.589Z,17.40
2022-11-30T06:24:41.857Z,17.70
2022-11-30T06:25:44.131Z,18.20
2022-11-30T06:26:46.366Z,18.13
2022-11-30T06:27:48.678Z,18.90
2022-11-30T06:28:50.872Z,16.97
2022-11-30T06:29:53.103Z,18.63
2022-11-30T06:30:58.800Z,18.27
2022-11-30T06:32:01.239Z,17.47
2022-11-30T06:33:03.863Z,18.03
2022-11-30T06:34:06.027Z,18.47
2022-11-30T06:35:08.628Z,17.60
2022-11-30T06:36:10.895Z,17.97
2022-11-30T06:37:13.078Z,17.70
2022-11-30T06:38:16.313Z,18.93
2022-11-30T06:39:31.491Z,18.63
2022-11-30T06:40:40.925Z,18.20
2022-11-30T06:41:43.140Z,17.97
2022-11-30T06:42:45.455Z,17.87
2022-11-30T06:43:49.953Z,17.63
2022-11-30T06:44:52.211Z,18.27
2022-11-30T06:45:54.529Z,18.33
2022-11-30T06:46:56.779Z,18.73
2022-11-30T06:47:59.005Z,17.70
2022-11-30T06:49:01.282Z,18.63
2022-11-30T06:50:05.265Z,19.10
2022-11-30T06:51:09.356Z,19.43
2022-11-30T06:52:13.859Z,19.33
2022-11-30T06:53:16.095Z,19.53
2022-11-30T06:54:18.319Z,19.83
2022-11-30T06:55:20.525Z,19.70
2022-11-30T06:56:22.750Z,19.50
2022-11-30T06:57:31.236Z,19.60
2022-11-30T06:58:33.771Z,18.37
2022-11-30T06:59:42.454Z,20.20
2022-11-30T07:00:44.750Z,19.83
2022-11-30T07:01:47.040Z,19.23
2022-11-30T07:02:49.254Z,19.23
2022-11-30T07:03:51.633Z,19.80
2022-11-30T07:04:53.887Z,20.40
2022-11-30T07:05:56.225Z,20.23
2022-11-30T07:06:58.491Z,21.23
2022-11-30T07:08:02.364Z,19.77
2022-11-30T07:09:06.496Z,21.60
2022-11-30T07:10:14.784Z,20.80
2022-11-30T07:11:21.070Z,21.13
2022-11-30T07:12:26.482Z,21.17
2022-11-30T07:13:29.333Z,21.70
2022-11-30T07:14:31.541Z,21.73
2022-11-30T07:15:33.744Z,21.13
2022-11-30T07:16:36.083Z,22.03
2022-11-30T07:17:38.471Z,21.90
2022-11-30T07:18:45.214Z,21.77
2022-11-30T07:19:47.458Z,22.97
2022-11-30T07:20:49.696Z,21.70
2022-11-30T07:21:51.899Z,21.63
2022-11-30T07:22:57.246Z,22.03
2022-11-30T07:24:20.646Z,22.73
2022-11-30T07:25:41.899Z,21.30
2022-11-30T07:26:44.097Z,19.93
2022-11-30T07:27:46.284Z,20.23
2022-11-30T07:28:54.818Z,19.77
2022-11-30T07:29:57.226Z,19.97
2022-11-30T07:30:59.444Z,20.57
2022-11-30T07:32:01.789Z,18.50
2022-11-30T07:33:03.985Z,18.00
2022-11-30T07:34:08.133Z,17.97
2022-11-30T07:35:12.576Z,18.23
2022-11-30T07:36:16.002Z,18.83
2022-11-30T07:37:18.197Z,18.83
2022-11-30T07:38:21.019Z,18.73
2022-11-30T07:39:24.491Z,19.20
2022-11-30T07:40:26.803Z,18.27
2022-11-30T07:41:29.506Z,17.97
2022-11-30T07:42:31.729Z,18.83
2022-11-30T07:43:34.131Z,18.60
2022-11-30T07:44:36.494Z,18.50
2022-11-30T07:45:38.769Z,18.47
2022-11-30T07:46:40.989Z,18.07
2022-11-30T07:47:43.230Z,17.63
2022-11-30T07:48:46.554Z,18.53
2022-11-30T07:49:48.764Z,18.47
2022-11-30T07:50:54.327Z,17.80
2022-11-30T07:51:56.775Z,18.00
2022-11-30T07:52:58.969Z,18.40
2022-11-30T07:54:01.241Z,17.87
2022-11-30T07:55:03.605Z,18.03
2022-11-30T07:56:08.511Z,17.90
2022-11-30T07:57:11.517Z,17.70
2022-11-30T07:58:17.637Z,16.97
2022-11-30T07:59:19.930Z,17.47
2022-11-30T08:00:22.125Z,16.97
2022-11-30T08:01:28.945Z,16.63
2022-11-30T08:02:31.260Z,16.80
2022-11-30T08:03:37.122Z,16.23
2022-11-30T08:04:42.244Z,15.70
2022-11-30T08:05:44.483Z,15.90
2022-11-30T08:06:46.676Z,16.33
2022-11-30T08:07:52.751Z,15.70
2022-11-30T08:08:57.782Z,16.67
2022-11-30T08:10:00.031Z,16.57
2022-11-30T08:11:02.757Z,15.73
2022-11-30T08:12:05.111Z,16.33
2022-11-30T08:13:07.506Z,15.50
2022-11-30T08:14:13.578Z,15.67
2022-11-30T08:15:21.220Z,15.73
2022-11-30T08:16:27.247Z,15.47
2022-11-30T08:17:29.514Z,15.63
2022-11-30T08:18:31.708Z,15.90
2022-11-30T08:19:34.072Z,16.27
2022-11-30T08:20:36.568Z,15.87
2022-11-30T08:21:39.522Z,15.27
2022-11-30T08:22:41.693Z,16.30
2022-11-30T08:23:46.781Z,16.23
2022-11-30T08:24:52.125Z,15.33
2022-11-30T08:25:54.345Z,15.70
2022-11-30T08:26:56.630Z,15.67
2022-11-30T08:27:58.826Z,15.80
2022-11-30T08:29:01.969Z,16.37
2022-11-30T08:30:04.947Z,16.80
2022-11-30T08:31:16.192Z,15.80
2022-11-30T08:32:18.639Z,15.37
2022-11-30T08:33:21.005Z,15.13
2022-11-30T08:34:23.261Z,15.97
2022-11-30T08:35:25.467Z,16.03
2022-11-30T08:36:30.137Z,15.20
2022-11-30T08:37:32.446Z,15.97
2022-11-30T08:38:35.208Z,15.87
2022-11-30T08:39:37.517Z,15.60
2022-11-30T08:40:41.490Z,16.13
2022-11-30T08:41:43.734Z,15.47
2022-11-30T08:42:45.951Z,15.77
2022-11-30T08:43:49.801Z,15.97
2022-11-30T08:44:59.884Z,15.73
2022-11-30T08:46:21.179Z,16.10
2022-11-30T08:47:28.419Z,15.57
2022-11-30T08:48:30.942Z,15.60
2022-11-30T08:49:33.135Z,15.77
2022-11-30T08:50:35.701Z,15.57
2022-11-30T08:52:14.654Z,16.43
2022-11-30T08:53:06.081Z,15.73
2022-11-30T08:54:08.640Z,15.83
2022-11-30T08:55:10.873Z,15.70
2022-11-30T08:56:21.654Z,15.63
2022-11-30T08:57:23.848Z,16.13
2022-11-30T08:58:27.173Z,16.73
2022-11-30T08:59:31.777Z,15.73
2022-11-30T09:00:34.021Z,16.63
2022-11-30T09:01:36.417Z,16.47
2022-11-30T09:02:38.654Z,16.43
2022-11-30T09:03:42.282Z,16.67
2022-11-30T09:04:49.094Z,16.70
2022-11-30T09:05:51.764Z,15.97
2022-11-30T09:06:59.154Z,16.73
2022-11-30T09:08:13.392Z,16.13
2022-11-30T09:09:27.667Z,15.30
2022-11-30T09:10:37.426Z,16.33
2022-11-30T09:12:08.405Z,15.80
2022-11-30T09:13:25.104Z,15.53
2022-11-30T09:14:37.706Z,15.40
2022-11-30T09:16:03.194Z,15.43
2022-11-30T09:17:29.572Z,15.30
2022-11-30T09:19:01.662Z,15.60
2022-11-30T09:20:05.189Z,16.40
2022-11-30T09:21:29.766Z,16.20
2022-11-30T09:22:52.158Z,14.80
2022-11-30T09:24:12.270Z,15.20
2022-11-30T09:25:24.572Z,15.53
2022-11-30T09:26:46.387Z,15.20
2022-11-30T09:28:06.791Z,15.63
2022-11-30T09:29:22.246Z,15.47
2022-11-30T09:30:41.628Z,15.93
2022-11-30T09:32:16.022Z,15.20
2022-11-30T09:33:24.936Z,15.07
2022-11-30T09:36:12.465Z,14.90
2022-11-30T09:37:34.900Z,15.77
2022-11-30T09:38:56.822Z,15.50
2022-11-30T09:40:45.775Z,15.73
2022-11-30T09:42:35.604Z,15.63
2022-11-30T09:44:21.427Z,15.97
2022-11-30T09:45:29.222Z,15.40
2022-11-30T09:47:44.418Z,15.47
2022-11-30T09:49:11.226Z,16.07
2022-11-30T09:50:30.079Z,15.73
2022-11-30T09:51:55.722Z,16.13
2022-11-30T09:53:15.044Z,15.20
2022-11-30T09:54:53.964Z,15.80
2022-11-30T09:56:20.186Z,16.70
2022-11-30T09:58:34.042Z,14.83
2022-11-30T09:59:45.523Z,15.90
2022-11-30T10:01:32.959Z,15.60
2022-11-30T10:02:55.587Z,14.97
2022-11-30T10:05:45.745Z,15.37
2022-11-30T10:07:15.009Z,15.60
2022-11-30T10:08:55.232Z,15.40
2022-11-30T10:10:45.871Z,15.17
2022-11-30T10:12:39.961Z,15.17
2022-11-30T10:14:21.031Z,15.43
2022-11-30T10:15:44.257Z,14.97
2022-11-30T10:16:55.322Z,14.80
2022-11-30T10:18:20.278Z,15.20
2022-11-30T10:19:51.314Z,15.63
2022-11-30T10:21:33.238Z,14.73
2022-11-30T10:23:09.421Z,15.40
2022-11-30T10:24:30.624Z,15.07
2022-11-30T10:26:03.401Z,14.70
2022-11-30T10:27:37.454Z,14.77
2022-11-30T10:28:49.305Z,14.67
2022-11-30T10:29:59.318Z,14.77
2022-11-30T10:31:53.714Z,14.40
2022-11-30T10:33:11.242Z,15.17
2022-11-30T10:34:32.685Z,16.07
2022-11-30T10:35:56.201Z,15.13
2022-11-30T10:37:12.540Z,14.70
2022-11-30T10:38:32.093Z,15.20
2022-11-30T10:39:49.877Z,14.43
2022-11-30T10:41:10.205Z,14.63
2022-11-30T10:42:34.547Z,15.20
2022-11-30T10:43:57.996Z,15.50
2022-11-30T10:45:34.689Z,14.40
2022-11-30T10:47:11.539Z,14.93
2022-11-30T10:48:23.957Z,15.07
2022-11-30T10:51:31.839Z,14.30
2022-11-30T10:52:47.922Z,14.60
2022-11-30T10:53:55.198Z,15.33
2022-11-30T10:55:11.003Z,14.77
2022-11-30T10:56:30.135Z,14.73
2022-11-30T10:57:54.858Z,14.63
2022-11-30T10:59:23.384Z,14.83
2022-11-30T11:00:37.639Z,14.77
2022-11-30T11:02:36.095Z,14.17
2022-11-30T11:03:44.959Z,14.03
2022-11-30T11:05:29.483Z,14.97
2022-11-30T11:06:37.635Z,14.57
2022-11-30T11:07:50.742Z,15.20
2022-11-30T11:08:57.758Z,15.43
2022-11-30T11:10:07.701Z,15.10
2022-11-30T11:11:35.565Z,14.27
2022-11-30T11:12:57.892Z,14.90
2022-11-30T11:14:26.982Z,14.53
2022-11-30T11:15:51.909Z,14.27
2022-11-30T11:17:06.167Z,14.33
2022-11-30T11:18:35.129Z,14.60
2022-11-30T11:19:44.491Z,14.80
2022-11-30T11:21:22.937Z,13.90
2022-11-30T11:24:21.627Z,14.40
2022-11-30T11:25:41.705Z,14.37
2022-11-30T11:27:07.618Z,13.93
2022-11-30T11:29:06.536Z,13.23
2022-11-30T11:32:51.513Z,13.20
2022-11-30T11:34:51.247Z,13.77
2022-11-30T11:36:20.881Z,13.87
2022-11-30T11:37:44.171Z,13.33
2022-11-30T11:40:23.686Z,13.70
2022-11-30T11:41:41.392Z,12.83
2022-11-30T11:43:03.287Z,13.60
2022-11-30T11:44:13.516Z,12.73
2022-11-30T11:45:23.019Z,14.20
2022-11-30T11:47:04.524Z,13.83
2022-11-30T11:48:44.150Z,13.00
2022-11-30T11:49:50.897Z,13.43
2022-11-30T11:51:29.214Z,13.83
2022-11-30T11:52:31.505Z,13.77
2022-11-30T11:53:53.909Z,13.90
2022-11-30T11:55:04.455Z,12.90
2022-11-30T11:56:20.688Z,13.30
2022-11-30T11:57:50.136Z,13.30
2022-11-30T11:59:03.295Z,13.00
2022-11-30T12:00:16.441Z,13.07
2022-11-30T12:01:39.871Z,13.13
2022-11-30T12:03:08.145Z,13.43
2022-11-30T12:04:33.031Z,13.80
2022-11-30T12:05:44.483Z,13.50
2022-11-30T12:06:51.579Z,13.97
2022-11-30T12:08:08.874Z,12.80
2022-11-30T12:09:30.030Z,13.70
2022-11-30T12:10:51.820Z,13.50
2022-11-30T12:11:54.937Z,13.83
2022-11-30T12:12:59.723Z,13.83
2022-11-30T12:14:05.305Z,14.03
2022-11-30T12:15:15.201Z,13.00
2022-11-30T12:16:40.788Z,14.00
2022-11-30T12:18:06.626Z,14.17
2022-11-30T12:19:20.848Z,13.90
2022-11-30T12:20:57.532Z,13.70
2022-11-30T12:22:06.055Z,13.50
2022-11-30T12:23:32.203Z,13.73
2022-11-30T12:25:05.767Z,13.87
2022-11-30T12:26:13.185Z,14.67
2022-11-30T12:27:24.280Z,14.27
2022-11-30T12:28:38.731Z,13.67
2022-11-30T12:29:55.396Z,14.17
2022-11-30T12:31:12.241Z,14.03
2022-11-30T12:33:00.379Z,13.93
2022-11-30T12:34:11.714Z,14.33
2022-11-30T12:35:39.522Z,14.10
2022-11-30T12:36:53.799Z,14.30
2022-11-30T12:38:14.970Z,14.80
2022-11-30T12:39:45.573Z,14.33
2022-11-30T12:41:16.192Z,14.13
2022-11-30T12:42:37.347Z,14.53
2022-11-30T12:43:47.096Z,14.97
2022-11-30T12:45:11.821Z,13.97
2022-11-30T12:46:48.139Z,14.53
2022-11-30T12:48:12.106Z,13.33
2022-11-30T12:49:22.257Z,14.27
2022-11-30T12:50:58.759Z,14.37
2022-11-30T12:52:25.748Z,14.80
2022-11-30T12:53:39.962Z,14.73
2022-11-30T12:55:04.124Z,15.00
2022-11-30T12:56:19.768Z,13.97
2022-11-30T12:57:49.084Z,13.87
2022-11-30T12:59:24.106Z,14.27
2022-11-30T13:00:32.276Z,15.40
2022-11-30T13:01:52.448Z,14.63
2022-11-30T13:03:05.222Z,15.30
2022-11-30T13:04:27.472Z,15.23
2022-11-30T13:05:54.861Z,14.77
2022-11-30T13:07:08.772Z,14.70
2022-11-30T13:08:29.556Z,14.73
2022-11-30T13:10:07.779Z,15.03
2022-11-30T13:11:21.634Z,14.63
2022-11-30T13:12:37.468Z,14.80
2022-11-30T13:13:56.504Z,14.60
2022-11-30T13:15:00.785Z,14.73
2022-11-30T13:16:10.972Z,14.63
2022-11-30T13:17:18.402Z,14.27
2022-11-30T13:18:23.288Z,14.03
2022-11-30T13:19:50.664Z,14.17
2022-11-30T13:21:06.427Z,14.73
2022-11-30T13:22:22.663Z,14.20
2022-11-30T13:23:42.654Z,15.07
2022-11-30T13:24:56.821Z,14.90
2022-11-30T13:26:27.222Z,13.93
2022-11-30T13:27:39.582Z,14.43
2022-11-30T13:28:41.751Z,13.90
2022-11-30T13:29:57.641Z,13.93
2022-11-30T13:31:17.837Z,13.63
2022-11-30T13:32:56.240Z,13.80
2022-11-30T13:33:59.815Z,13.50
2022-11-30T13:35:31.314Z,14.30
2022-11-30T13:36:39.545Z,14.30
2022-11-30T13:37:41.825Z,14.00
2022-11-30T13:38:44.104Z,14.03
2022-11-30T13:39:59.477Z,13.77
2022-11-30T13:41:04.606Z,13.53
2022-11-30T13:42:12.569Z,13.93
2022-11-30T13:43:21.891Z,13.73
2022-11-30T13:44:34.391Z,14.30
2022-11-30T13:45:36.697Z,14.07
2022-11-30T13:46:51.560Z,13.90
2022-11-30T13:47:56.112Z,14.00
2022-11-30T13:49:21.333Z,13.83
2022-11-30T13:50:39.404Z,13.83
2022-11-30T13:51:42.367Z,13.80
2022-11-30T13:53:03.024Z,13.33
2022-11-30T13:54:51.002Z,12.90
2022-11-30T13:55:57.312Z,12.97
2022-11-30T13:56:59.515Z,13.43
2022-11-30T13:58:01.685Z,13.30
2022-11-30T13:59:25.202Z,12.90
2022-11-30T14:00:30.268Z,13.97
2022-11-30T14:01:32.625Z,13.07
2022-11-30T14:02:42.118Z,13.23
2022-11-30T14:04:15.090Z,12.47
2022-11-30T14:05:17.627Z,12.63
2022-11-30T14:06:41.375Z,13.30
2022-11-30T14:07:49.965Z,12.87
2022-11-30T14:08:54.837Z,13.00
2022-11-30T14:09:59.052Z,13.07
2022-11-30T14:11:19.305Z,13.30
2022-11-30T14:12:34.686Z,13.60
2022-11-30T14:13:37.497Z,12.53
2022-11-30T14:14:47.887Z,12.87
2022-11-30T14:15:50.062Z,12.90
2022-11-30T14:16:53.072Z,12.97
2022-11-30T14:17:57.431Z,12.77
2022-11-30T14:19:00.542Z,12.70
2022-11-30T14:20:16.217Z,12.83
2022-11-30T14:21:36.813Z,12.30
2022-11-30T14:22:40.460Z,12.87
2022-11-30T14:24:02.229Z,12.83
2022-11-30T14:25:17.416Z,13.00
2022-11-30T14:26:28.936Z,13.53
2022-11-30T14:27:38.928Z,12.20
2022-11-30T14:28:52.527Z,13.47
2022-11-30T14:30:01.900Z,12.73
2022-11-30T14:31:09.195Z,12.63
2022-11-30T14:32:17.163Z,12.23
2022-11-30T14:33:25.749Z,12.47
2022-11-30T14:34:36.671Z,12.17
2022-11-30T14:35:40.609Z,11.83
2022-11-30T14:36:50.948Z,12.70
2022-11-30T14:37:58.547Z,13.30
2022-11-30T14:39:00.799Z,12.63
2022-11-30T14:40:06.415Z,13.00
2022-11-30T14:41:24.039Z,13.03
2022-11-30T14:42:30.567Z,12.17
2022-11-30T14:43:40.456Z,12.90
2022-11-30T14:44:42.744Z,12.97
2022-11-30T14:46:05.110Z,12.67
2022-11-30T14:47:23.903Z,12.83
2022-11-30T14:48:27.949Z,13.03
2022-11-30T14:49:30.169Z,12.20
2022-11-30T14:50:33.047Z,12.77
2022-11-30T14:51:38.942Z,12.47
2022-11-30T14:52:41.090Z,13.30
2022-11-30T14:54:00.679Z,12.90
2022-11-30T14:55:39.823Z,12.43
2022-11-30T14:56:49.832Z,12.33
2022-11-30T14:58:18.241Z,13.23
2022-11-30T14:59:33.126Z,13.47
2022-11-30T15:00:41.139Z,13.37
2022-11-30T15:01:43.856Z,12.97
2022-11-30T15:02:47.124Z,13.47
2022-11-30T15:03:51.900Z,13.80